Time;durP1;ratioP1;P1;durP2;ratioP2;P2;SDS_P1;SDS_P2;PMS_P1;PMS_P2;Temp;Humidity;BMP_temperature;BMP_pressure;BME280_temperature;BME280_humidity;BME280_pressure;Samples;Min_cycle;Max_cycle;Signal;HPM_P1;HPM_P2
2021/09/17 00:01:54;;;;;;;15.07;9.95;;;;;;;;;;4994505;28;20122;-45
2021/09/17 00:04:21;;;;;;;14.23;9.70;;;;;;;;;;4993689;28;20046;-46
2021/09/17 00:06:50;;;;;;;15.57;10.00;;;;;;;;;;4994432;28;20034;-43
2021/09/17 00:09:18;;;;;;;13.20;9.45;;;;;;;;;;4994514;28;20126;-43
2021/09/17 00:11:44;;;;;;;14.32;10.20;;;;;;;;;;4994342;28;20137;-43
2021/09/17 00:14:11;;;;;;;15.90;10.00;;;;;;;;;;4993823;28;20042;-43
2021/09/17 00:16:38;;;;;;;16.58;10.18;;;;;;;;;;4994322;28;20049;-44
2021/09/17 00:19:05;;;;;;;15.75;11.23;;;;;;;;;;4994117;28;20034;-42
2021/09/17 00:21:32;;;;;;;15.25;10.65;;;;;;;;;;4994030;28;20052;-43
2021/09/17 00:23:58;;;;;;;17.30;11.23;;;;;;;;;;4993647;28;20042;-46
2021/09/17 00:26:25;;;;;;;16.58;11.20;;;;;;;;;;4994149;28;20121;-43
2021/09/17 00:28:52;;;;;;;20.40;11.90;;;;;;;;;;4994265;28;20404;-43
2021/09/17 00:31:19;;;;;;;17.90;11.25;;;;;;;;;;4994040;28;20439;-44
2021/09/17 00:33:45;;;;;;;15.25;11.00;;;;;;;;;;4993293;28;20046;-43
2021/09/17 00:36:12;;;;;;;18.42;11.13;;;;;;;;;;4993850;28;20425;-44
2021/09/17 00:38:39;;;;;;;18.65;10.98;;;;;;;;;;4994056;28;20411;-46
2021/09/17 00:41:06;;;;;;;19.20;11.75;;;;;;;;;;4994615;28;20129;-43
2021/09/17 00:43:32;;;;;;;16.15;10.57;;;;;;;;;;4994804;28;20080;-43
2021/09/17 00:45:59;;;;;;;15.45;11.45;;;;;;;;;;4995090;28;20066;-44
2021/09/17 00:48:26;;;;;;;17.25;10.70;;;;;;;;;;4993748;28;20141;-43
2021/09/17 00:50:53;;;;;;;15.00;10.27;;;;;;;;;;4994664;28;20077;-47
2021/09/17 00:53:20;;;;;;;15.30;10.70;;;;;;;;;;4993039;28;20074;-47
2021/09/17 00:55:46;;;;;;;17.17;11.75;;;;;;;;;;4993632;28;20488;-46
2021/09/17 00:58:13;;;;;;;17.08;10.82;;;;;;;;;;4993315;28;20042;-46
2021/09/17 01:00:40;;;;;;;14.20;10.27;;;;;;;;;;4993386;28;20460;-47
2021/09/17 01:03:07;;;;;;;16.52;11.57;;;;;;;;;;4993354;28;20400;-46
2021/09/17 01:05:34;;;;;;;16.65;10.75;;;;;;;;;;4992109;28;20066;-46
2021/09/17 01:08:01;;;;;;;17.38;11.50;;;;;;;;;;4993173;28;20056;-46
2021/09/17 01:10:28;;;;;;;15.85;11.07;;;;;;;;;;4993083;28;20046;-49
2021/09/17 01:12:55;;;;;;;16.08;10.70;;;;;;;;;;4992997;28;20515;-46
2021/09/17 01:15:22;;;;;;;14.73;10.95;;;;;;;;;;4992298;28;20058;-46
2021/09/17 01:17:49;;;;;;;15.48;10.55;;;;;;;;;;4992698;28;20134;-50
2021/09/17 01:20:17;;;;;;;16.65;10.48;;;;;;;;;;4992959;28;20043;-47
2021/09/17 01:22:44;;;;;;;15.68;10.23;;;;;;;;;;4992918;28;20077;-50
2021/09/17 01:25:12;;;;;;;17.75;11.20;;;;;;;;;;4992370;28;20121;-50
2021/09/17 01:27:40;;;;;;;16.02;10.52;;;;;;;;;;4992922;28;20134;-47
2021/09/17 01:30:08;;;;;;;19.73;11.05;;;;;;;;;;4992820;28;20142;-51
2021/09/17 01:32:35;;;;;;;16.92;10.73;;;;;;;;;;4992873;28;20483;-50
2021/09/17 01:35:04;;;;;;;14.93;10.73;;;;;;;;;;4992231;28;20133;-49
2021/09/17 01:37:30;;;;;;;16.60;10.32;;;;;;;;;;4992545;28;20591;-47
2021/09/17 01:39:57;;;;;;;14.15;9.85;;;;;;;;;;4992606;28;20129;-47
2021/09/17 01:42:24;;;;;;;14.80;9.57;;;;;;;;;;4992470;28;20046;-49
2021/09/17 01:44:51;;;;;;;16.25;10.15;;;;;;;;;;4992111;28;20130;-51
2021/09/17 01:47:17;;;;;;;15.90;10.35;;;;;;;;;;4990851;28;20065;-46
2021/09/17 01:49:44;;;;;;;18.15;10.55;;;;;;;;;;4992388;28;20065;-46
2021/09/17 01:52:11;;;;;;;16.58;9.80;;;;;;;;;;4992413;28;20125;-44
2021/09/17 01:54:39;;;;;;;14.07;9.52;;;;;;;;;;4991756;28;20038;-49
2021/09/17 01:57:06;;;;;;;14.63;9.48;;;;;;;;;;4992360;28;20046;-48
2021/09/17 01:59:33;;;;;;;14.23;10.10;;;;;;;;;;4979644;28;20131;-49
2021/09/17 02:02:00;;;;;;;15.05;10.35;;;;;;;;;;4972967;28;20093;-47
2021/09/17 02:04:27;;;;;;;14.85;9.35;;;;;;;;;;4972166;28;20041;-46
2021/09/17 02:06:54;;;;;;;14.52;10.25;;;;;;;;;;4981752;28;20081;-46
2021/09/17 02:09:20;;;;;;;16.27;10.00;;;;;;;;;;4992064;28;20132;-45
2021/09/17 02:11:47;;;;;;;16.65;9.68;;;;;;;;;;4992424;28;20085;-44
2021/09/17 02:14:14;;;;;;;16.48;9.55;;;;;;;;;;4991403;28;20460;-44
2021/09/17 02:16:41;;;;;;;15.23;10.57;;;;;;;;;;4983346;28;20042;-46
2021/09/17 02:19:07;;;;;;;15.73;9.70;;;;;;;;;;4972913;28;20389;-49
2021/09/17 02:21:34;;;;;;;13.15;9.85;;;;;;;;;;4987435;28;20126;-48
2021/09/17 02:24:01;;;;;;;15.02;9.55;;;;;;;;;;4976442;28;20141;-48
2021/09/17 02:26:28;;;;;;;15.80;9.68;;;;;;;;;;4992064;28;20404;-45
2021/09/17 02:28:55;;;;;;;13.00;8.93;;;;;;;;;;4984491;28;20042;-47
2021/09/17 02:31:21;;;;;;;13.63;9.30;;;;;;;;;;4972487;28;20055;-50
2021/09/17 02:33:48;;;;;;;14.23;9.63;;;;;;;;;;4971882;28;20047;-48
2021/09/17 02:36:15;;;;;;;14.77;9.50;;;;;;;;;;4973007;28;20055;-47
2021/09/17 02:38:42;;;;;;;12.27;9.00;;;;;;;;;;4972334;28;20046;-45
2021/09/17 02:41:09;;;;;;;16.20;10.00;;;;;;;;;;4972496;28;20049;-44
2021/09/17 02:43:36;;;;;;;16.08;9.35;;;;;;;;;;4972008;28;20038;-42
2021/09/17 02:46:02;;;;;;;13.80;9.10;;;;;;;;;;4984143;28;20487;-42
2021/09/17 02:48:29;;;;;;;12.82;8.88;;;;;;;;;;4991954;28;20039;-44
2021/09/17 02:50:56;;;;;;;11.60;8.25;;;;;;;;;;4993168;28;20426;-43
2021/09/17 02:53:23;;;;;;;15.43;9.82;;;;;;;;;;4991643;28;20050;-43
2021/09/17 02:55:49;;;;;;;13.52;9.20;;;;;;;;;;4980879;28;20082;-46
2021/09/17 02:58:17;;;;;;;16.15;10.27;;;;;;;;;;4976732;28;20034;-44
2021/09/17 03:00:44;;;;;;;15.10;9.45;;;;;;;;;;4995601;28;20065;-43
2021/09/17 03:03:11;;;;;;;13.95;9.27;;;;;;;;;;4995014;28;20039;-43
2021/09/17 03:05:38;;;;;;;12.27;9.30;;;;;;;;;;4996039;28;20130;-43
2021/09/17 03:08:05;;;;;;;12.95;9.07;;;;;;;;;;4979019;28;20431;-42
2021/09/17 03:10:31;;;;;;;12.50;8.25;;;;;;;;;;4976101;28;20125;-44
2021/09/17 03:12:59;;;;;;;15.75;10.00;;;;;;;;;;4975911;28;20571;-42
2021/09/17 03:15:26;;;;;;;12.75;9.25;;;;;;;;;;4975468;28;20563;-46
2021/09/17 03:17:53;;;;;;;12.27;8.88;;;;;;;;;;4994011;28;20047;-42
2021/09/17 03:20:20;;;;;;;13.13;8.52;;;;;;;;;;4995288;28;20042;-42
2021/09/17 03:22:47;;;;;;;14.07;9.25;;;;;;;;;;4995182;28;20100;-43
2021/09/17 03:25:14;;;;;;;14.18;9.05;;;;;;;;;;4994580;28;20038;-43
2021/09/17 03:27:42;;;;;;;14.85;8.85;;;;;;;;;;4995215;28;20050;-43
2021/09/17 03:30:09;;;;;;;14.77;8.63;;;;;;;;;;4978049;28;20130;-44
2021/09/17 03:32:36;;;;;;;13.65;8.98;;;;;;;;;;4990636;28;20085;-43
2021/09/17 03:35:04;;;;;;;14.23;9.10;;;;;;;;;;4974827;28;20042;-43
2021/09/17 03:37:31;;;;;;;14.05;9.13;;;;;;;;;;4975562;28;20039;-44
2021/09/17 03:39:57;;;;;;;11.80;8.57;;;;;;;;;;4976167;28;20042;-43
2021/09/17 03:42:24;;;;;;;14.55;8.85;;;;;;;;;;4975345;28;20034;-43
2021/09/17 03:44:51;;;;;;;13.98;8.45;;;;;;;;;;4974724;28;20055;-44
2021/09/17 03:47:18;;;;;;;13.20;9.13;;;;;;;;;;4975575;28;20043;-43
2021/09/17 03:49:44;;;;;;;11.25;8.60;;;;;;;;;;4993756;28;20085;-43
2021/09/17 03:52:11;;;;;;;12.13;8.50;;;;;;;;;;4994818;28;20133;-43
2021/09/17 03:54:38;;;;;;;12.65;8.75;;;;;;;;;;4994117;28;20046;-43
2021/09/17 03:57:05;;;;;;;15.05;9.18;;;;;;;;;;4994629;28;20042;-43
2021/09/17 03:59:32;;;;;;;14.95;9.02;;;;;;;;;;4994560;28;20068;-46
2021/09/17 04:02:00;;;;;;;13.18;8.95;;;;;;;;;;4994457;28;20555;-44
2021/09/17 04:04:28;;;;;;;15.20;9.50;;;;;;;;;;4993759;28;20049;-45
2021/09/17 04:06:55;;;;;;;13.13;9.02;;;;;;;;;;4994501;28;20046;-44
2021/09/17 04:09:21;;;;;;;15.68;9.82;;;;;;;;;;4993828;28;20049;-44
2021/09/17 04:11:48;;;;;;;13.98;9.85;;;;;;;;;;4994218;28;20076;-43
2021/09/17 04:14:15;;;;;;;15.45;9.50;;;;;;;;;;4993551;28;20050;-42
2021/09/17 04:16:42;;;;;;;12.70;9.07;;;;;;;;;;4994499;28;20050;-42
2021/09/17 04:19:08;;;;;;;16.70;9.95;;;;;;;;;;4994029;28;20042;-45
2021/09/17 04:21:35;;;;;;;13.60;9.55;;;;;;;;;;4994219;28;20051;-44
2021/09/17 04:24:02;;;;;;;14.00;9.77;;;;;;;;;;4993440;28;20042;-42
2021/09/17 04:26:29;;;;;;;14.93;9.43;;;;;;;;;;4994153;28;20471;-43
2021/09/17 04:28:55;;;;;;;15.57;9.88;;;;;;;;;;4992958;28;20077;-43
2021/09/17 04:31:22;;;;;;;13.88;9.60;;;;;;;;;;4993953;28;20388;-44
2021/09/17 04:33:49;;;;;;;14.07;9.40;;;;;;;;;;4993239;28;20102;-44
2021/09/17 04:36:16;;;;;;;14.63;9.75;;;;;;;;;;4994291;28;20423;-42
2021/09/17 04:38:42;;;;;;;17.98;9.60;;;;;;;;;;4987469;28;20412;-43
2021/09/17 04:41:09;;;;;;;13.48;9.05;;;;;;;;;;4974380;28;20053;-44
2021/09/17 04:43:36;;;;;;;14.98;10.48;;;;;;;;;;4973410;28;20039;-44
2021/09/17 04:46:02;;;;;;;15.63;10.45;;;;;;;;;;4974097;28;20042;-44
2021/09/17 04:48:29;;;;;;;17.13;10.45;;;;;;;;;;4974587;28;20583;-45
2021/09/17 04:50:56;;;;;;;15.43;10.70;;;;;;;;;;4974288;28;20043;-42
2021/09/17 04:53:24;;;;;;;16.13;10.55;;;;;;;;;;4973288;28;20193;-43
2021/09/17 04:55:51;;;;;;;14.43;9.82;;;;;;;;;;4987403;28;20058;-43
2021/09/17 04:58:38;;;;;;;13.95;10.02;;;;;;;;;;4993372;28;20049;-43
2021/09/17 05:01:04;;;;;;;15.48;10.18;;;;;;;;;;4993558;28;20053;-43
2021/09/17 05:03:31;;;;;;;14.38;9.90;;;;;;;;;;4991580;28;20073;-43
2021/09/17 05:05:58;;;;;;;15.07;10.00;;;;;;;;;;4993297;28;20070;-47
2021/09/17 05:08:25;;;;;;;16.20;10.48;;;;;;;;;;4980282;28;20057;-45
2021/09/17 05:10:52;;;;;;;16.42;10.15;;;;;;;;;;4973607;28;20046;-44
2021/09/17 05:13:18;;;;;;;13.95;9.98;;;;;;;;;;4972961;28;20130;-44
2021/09/17 05:15:45;;;;;;;16.65;10.20;;;;;;;;;;4973696;28;20050;-43
2021/09/17 05:18:12;;;;;;;14.43;10.32;;;;;;;;;;4982986;28;20678;-45
2021/09/17 05:20:39;;;;;;;18.58;10.30;;;;;;;;;;4972959;28;20133;-47
2021/09/17 05:23:06;;;;;;;13.38;9.70;;;;;;;;;;4973088;28;20053;-43
2021/09/17 05:25:33;;;;;;;15.40;10.02;;;;;;;;;;4974094;28;20345;-42
2021/09/17 05:28:00;;;;;;;15.43;9.77;;;;;;;;;;4974017;28;20062;-43
2021/09/17 05:30:27;;;;;;;17.55;10.73;;;;;;;;;;4973387;28;20097;-47
2021/09/17 05:32:54;;;;;;;16.48;9.75;;;;;;;;;;4973773;28;20077;-43
2021/09/17 05:35:20;;;;;;;14.35;9.82;;;;;;;;;;4973770;28;20423;-43
2021/09/17 05:37:47;;;;;;;18.55;10.02;;;;;;;;;;4988137;28;20416;-43
2021/09/17 05:40:14;;;;;;;16.90;10.43;;;;;;;;;;4992849;28;20042;-43
2021/09/17 05:42:41;;;;;;;14.80;10.70;;;;;;;;;;4992927;28;20129;-42
2021/09/17 05:45:08;;;;;;;15.35;10.65;;;;;;;;;;4980814;28;20170;-46
2021/09/17 05:47:36;;;;;;;17.60;10.52;;;;;;;;;;4973212;28;20067;-43
2021/09/17 05:50:04;;;;;;;15.82;9.38;;;;;;;;;;4973176;28;20300;-47
2021/09/17 05:52:30;;;;;;;20.35;11.10;;;;;;;;;;4974408;28;20500;-44
2021/09/17 05:54:58;;;;;;;14.90;9.93;;;;;;;;;;4989614;28;20137;-45
2021/09/17 05:57:24;;;;;;;14.25;9.40;;;;;;;;;;4993155;28;20459;-42
2021/09/17 05:59:51;;;;;;;17.13;10.77;;;;;;;;;;4977738;28;20074;-43
2021/09/17 06:02:18;;;;;;;13.63;9.57;;;;;;;;;;4973423;28;20042;-47
2021/09/17 06:04:45;;;;;;;13.50;9.23;;;;;;;;;;4972441;28;20051;-43
2021/09/17 06:07:12;;;;;;;16.98;10.82;;;;;;;;;;4973120;28;20298;-47
2021/09/17 06:09:39;;;;;;;16.63;10.75;;;;;;;;;;4983184;28;20428;-43
2021/09/17 06:12:06;;;;;;;15.88;10.40;;;;;;;;;;4972800;28;20134;-44
2021/09/17 06:14:32;;;;;;;14.50;10.25;;;;;;;;;;4986715;28;20047;-43
2021/09/17 06:16:59;;;;;;;15.48;10.30;;;;;;;;;;4973462;28;20055;-45
2021/09/17 06:19:26;;;;;;;14.40;9.80;;;;;;;;;;4971241;28;20073;-45
2021/09/17 06:21:53;;;;;;;15.50;9.98;;;;;;;;;;4972949;28;20045;-43
2021/09/17 06:24:20;;;;;;;14.23;10.57;;;;;;;;;;4972939;28;20070;-46
2021/09/17 06:26:47;;;;;;;13.88;10.10;;;;;;;;;;4992107;28;20054;-46
2021/09/17 06:29:14;;;;;;;13.43;10.23;;;;;;;;;;4991829;28;20046;-44
2021/09/17 06:31:41;;;;;;;15.82;10.98;;;;;;;;;;4991819;28;20137;-43
2021/09/17 06:34:08;;;;;;;16.23;10.80;;;;;;;;;;4991190;28;20046;-44
2021/09/17 06:36:34;;;;;;;16.45;10.95;;;;;;;;;;4991391;28;20054;-44
2021/09/17 06:39:02;;;;;;;17.05;11.75;;;;;;;;;;4991254;28;20070;-47
2021/09/17 06:41:29;;;;;;;16.85;10.98;;;;;;;;;;4990586;28;20034;-44
2021/09/17 06:43:56;;;;;;;16.17;11.05;;;;;;;;;;4991385;28;20045;-44
2021/09/17 06:46:23;;;;;;;16.30;11.07;;;;;;;;;;4991709;28;20051;-43
2021/09/17 06:48:50;;;;;;;14.07;10.18;;;;;;;;;;4992475;28;20046;-43
2021/09/17 06:51:21;;;;;;;15.30;10.98;;;;;;;;;;4990857;28;20096;-47
2021/09/17 06:53:48;;;;;;;18.20;11.05;;;;;;;;;;4989922;28;20049;-42
2021/09/17 06:56:15;;;;;;;15.15;10.07;;;;;;;;;;4991911;28;20069;-44
2021/09/17 06:58:42;;;;;;;16.27;11.00;;;;;;;;;;4990382;28;20134;-46
2021/09/17 07:01:09;;;;;;;16.90;11.70;;;;;;;;;;4990396;28;20504;-44
2021/09/17 07:03:36;;;;;;;13.95;10.18;;;;;;;;;;4973341;28;20046;-44
2021/09/17 07:06:03;;;;;;;15.23;9.77;;;;;;;;;;4991811;28;20125;-42
2021/09/17 07:08:30;;;;;;;14.93;10.70;;;;;;;;;;4991803;28;20035;-47
2021/09/17 07:10:57;;;;;;;13.88;10.40;;;;;;;;;;4991837;28;20133;-44
2021/09/17 07:13:24;;;;;;;15.65;10.95;;;;;;;;;;4991036;28;20451;-45
2021/09/17 07:15:50;;;;;;;14.30;11.02;;;;;;;;;;4991729;28;20046;-47
2021/09/17 07:18:17;;;;;;;14.73;11.00;;;;;;;;;;4974485;28;20101;-42
2021/09/17 07:20:44;;;;;;;14.75;11.05;;;;;;;;;;4972104;28;20038;-42
2021/09/17 07:23:12;;;;;;;16.23;10.75;;;;;;;;;;4970263;28;20129;-46
2021/09/17 07:25:39;;;;;;;14.50;10.40;;;;;;;;;;4982201;28;20489;-48
2021/09/17 07:28:09;;;;;;;16.65;10.80;;;;;;;;;;4990480;28;20440;-47
2021/09/17 07:30:36;;;;;;;15.70;11.23;;;;;;;;;;4992077;28;20049;-44
2021/09/17 07:33:03;;;;;;;15.38;11.55;;;;;;;;;;4991245;28;20120;-46
2021/09/17 07:35:30;;;;;;;13.85;11.45;;;;;;;;;;4991255;28;20046;-43
2021/09/17 07:37:57;;;;;;;14.18;10.25;;;;;;;;;;4991456;28;20056;-42
2021/09/17 07:40:25;;;;;;;17.67;10.20;;;;;;;;;;4991459;28;20042;-46
2021/09/17 07:42:52;;;;;;;13.98;10.23;;;;;;;;;;4990078;28;20118;-47
2021/09/17 07:45:21;;;;;;;15.52;10.45;;;;;;;;;;4993672;28;20067;-48
2021/09/17 07:47:48;;;;;;;12.65;8.88;;;;;;;;;;4995063;28;20038;-44
2021/09/17 07:50:15;;;;;;;11.88;9.20;;;;;;;;;;4995006;28;20072;-43
2021/09/17 07:52:42;;;;;;;11.20;8.95;;;;;;;;;;4995052;28;20484;-48
2021/09/17 07:55:10;;;;;;;15.63;10.23;;;;;;;;;;4994459;28;20074;-42
2021/09/17 07:57:37;;;;;;;14.88;10.15;;;;;;;;;;4977954;28;20042;-48
2021/09/17 08:00:04;;;;;;;16.42;9.73;;;;;;;;;;4976011;28;20510;-43
2021/09/17 08:02:39;;;;;;;15.20;9.65;;;;;;;;;;4975445;28;20116;-47
2021/09/17 08:05:11;;;;;;;13.40;10.30;;;;;;;;;;4974745;28;20047;-43
2021/09/17 08:07:38;;;;;;;13.27;10.55;;;;;;;;;;4975724;28;20034;-47
2021/09/17 08:10:05;;;;;;;13.77;9.88;;;;;;;;;;4975045;28;20053;-46
2021/09/17 08:12:32;;;;;;;14.38;9.63;;;;;;;;;;4975299;28;20098;-42
2021/09/17 08:14:59;;;;;;;14.95;11.02;;;;;;;;;;4974505;28;20134;-45
2021/09/17 08:17:26;;;;;;;14.40;10.30;;;;;;;;;;4976032;28;20090;-46
2021/09/17 08:19:53;;;;;;;12.52;9.52;;;;;;;;;;4975101;28;20043;-44
2021/09/17 08:22:20;;;;;;;15.70;11.55;;;;;;;;;;4975100;28;20035;-43
2021/09/17 08:24:47;;;;;;;13.50;10.68;;;;;;;;;;4988522;28;20135;-45
2021/09/17 08:27:13;;;;;;;15.55;11.38;;;;;;;;;;4994581;28;20065;-44
2021/09/17 08:29:40;;;;;;;14.30;9.93;;;;;;;;;;4994295;28;20478;-43
2021/09/17 08:32:27;;;;;;;15.05;10.85;;;;;;;;;;4993368;28;20504;-45
2021/09/17 08:35:13;;;;;;;14.13;10.68;;;;;;;;;;4993787;28;20116;-43
2021/09/17 08:38:01;;;;;;;14.60;11.18;;;;;;;;;;4990704;28;20101;-43
2021/09/17 08:40:29;;;;;;;16.45;10.88;;;;;;;;;;4974865;28;20131;-45
2021/09/17 08:42:59;;;;;;;11.98;10.45;;;;;;;;;;4974832;28;20038;-48
2021/09/17 08:45:28;;;;;;;11.82;9.60;;;;;;;;;;4974231;28;20043;-44
2021/09/17 08:47:57;;;;;;;11.20;8.38;;;;;;;;;;4988892;28;20416;-43
2021/09/17 08:50:24;;;;;;;11.43;9.00;;;;;;;;;;4993856;28;20045;-47
2021/09/17 08:52:53;;;;;;;12.07;9.80;;;;;;;;;;4993629;28;20508;-43
2021/09/17 08:55:20;;;;;;;13.00;11.38;;;;;;;;;;5007147;28;20034;-44
2021/09/17 08:57:48;;;;;;;12.52;10.50;;;;;;;;;;4993562;28;20129;-44
2021/09/17 09:00:27;;;;;;;14.18;10.88;;;;;;;;;;4993182;28;20571;-45
2021/09/17 09:02:54;;;;;;;16.50;10.57;;;;;;;;;;4992729;28;20544;-43
2021/09/17 09:05:28;;;;;;;13.38;10.43;;;;;;;;;;4993272;28;20046;-43
2021/09/17 09:07:55;;;;;;;14.30;9.23;;;;;;;;;;4993570;28;20070;-42
2021/09/17 09:10:22;;;;;;;11.65;10.05;;;;;;;;;;4993331;28;20135;-42
2021/09/17 09:12:50;;;;;;;15.65;9.77;;;;;;;;;;4993151;28;20125;-42
2021/09/17 09:15:18;;;;;;;16.80;10.20;;;;;;;;;;4992551;28;20133;-43
2021/09/17 09:17:46;;;;;;;16.42;10.98;;;;;;;;;;4993423;28;20408;-45
2021/09/17 09:20:26;;;;;;;13.25;10.40;;;;;;;;;;4992909;28;20053;-46
2021/09/17 09:23:05;;;;;;;12.98;9.70;;;;;;;;;;4993128;28;20515;-45
2021/09/17 09:25:32;;;;;;;12.15;9.10;;;;;;;;;;4992970;28;20118;-44
2021/09/17 09:28:12;;;;;;;10.10;8.52;;;;;;;;;;4992730;28;20053;-45
2021/09/17 09:30:39;;;;;;;11.45;8.85;;;;;;;;;;4973600;28;20050;-43
2021/09/17 09:33:20;;;;;;;13.77;9.63;;;;;;;;;;4973084;28;20085;-44
2021/09/17 09:35:54;;;;;;;12.30;9.73;;;;;;;;;;4973287;28;20563;-43
2021/09/17 09:38:47;;;;;;;10.50;7.90;;;;;;;;;;4959701;28;20047;-44
2021/09/17 09:41:17;;;;;;;14.90;9.57;;;;;;;;;;4972242;28;20129;-46
2021/09/17 09:43:50;;;;;;;13.65;9.27;;;;;;;;;;4972726;28;20051;-47
2021/09/17 09:46:27;;;;;;;12.18;9.18;;;;;;;;;;4976874;28;20137;-43
2021/09/17 09:49:03;;;;;;;11.13;7.85;;;;;;;;;;4991343;28;20046;-42
2021/09/17 09:51:34;;;;;;;10.55;8.30;;;;;;;;;;4992786;28;20042;-47
2021/09/17 09:54:03;;;;;;;10.20;7.80;;;;;;;;;;4991919;28;20143;-45
2021/09/17 09:56:32;;;;;;;9.50;8.32;;;;;;;;;;4973221;28;20042;-45
2021/09/17 09:59:03;;;;;;;10.82;7.93;;;;;;;;;;4981831;28;20051;-44
2021/09/17 10:01:32;;;;;;;13.02;8.57;;;;;;;;;;4992913;28;20066;-44
2021/09/17 10:03:59;;;;;;;11.40;8.57;;;;;;;;;;4991796;28;20480;-42
2021/09/17 10:06:27;;;;;;;10.50;8.93;;;;;;;;;;4992035;28;20133;-44
2021/09/17 10:08:54;;;;;;;11.50;7.70;;;;;;;;;;4992153;28;20466;-43
2021/09/17 10:11:22;;;;;;;9.43;7.45;;;;;;;;;;4991187;28;20046;-43
2021/09/17 10:13:53;;;;;;;9.15;6.45;;;;;;;;;;4991751;28;20074;-43
2021/09/17 10:16:21;;;;;;;7.30;6.25;;;;;;;;;;4991167;28;20051;-43
2021/09/17 10:18:48;;;;;;;9.38;7.82;;;;;;;;;;4990790;28;20050;-42
2021/09/17 10:21:34;;;;;;;7.95;7.00;;;;;;;;;;4991868;28;20072;-46
2021/09/17 10:24:21;;;;;;;7.65;6.20;;;;;;;;;;4991500;28;20416;-45
2021/09/17 10:26:56;;;;;;;6.97;5.68;;;;;;;;;;4992425;28;20045;-43
2021/09/17 10:29:37;;;;;;;9.13;5.50;;;;;;;;;;4992439;28;20129;-43
2021/09/17 10:32:06;;;;;;;5.95;4.65;;;;;;;;;;4992580;28;20054;-43
2021/09/17 10:34:35;;;;;;;8.32;5.07;;;;;;;;;;4990334;28;20046;-44
2021/09/17 10:37:04;;;;;;;5.80;4.65;;;;;;;;;;4991576;28;20053;-45
2021/09/17 10:39:31;;;;;;;5.45;4.50;;;;;;;;;;4987334;28;20571;-47
2021/09/17 10:42:18;;;;;;;5.82;4.05;;;;;;;;;;4972551;28;20145;-43
2021/09/17 10:45:00;;;;;;;7.45;4.28;;;;;;;;;;4972021;28;20467;-43
2021/09/17 10:47:40;;;;;;;5.00;3.97;;;;;;;;;;4973158;28;20090;-44
2021/09/17 10:50:08;;;;;;;4.10;2.78;;;;;;;;;;4972733;28;20460;-42
2021/09/17 10:52:39;;;;;;;5.32;3.10;;;;;;;;;;4972501;28;20042;-43
2021/09/17 10:55:07;;;;;;;5.60;3.72;;;;;;;;;;4978715;28;20488;-48
2021/09/17 10:57:52;;;;;;;3.40;2.40;;;;;;;;;;4992089;28;20057;-46
2021/09/17 11:00:42;;;;;;;4.45;2.72;;;;;;;;;;4973884;28;20043;-49
2021/09/17 11:03:09;;;;;;;4.18;2.40;;;;;;;;;;4968961;28;20507;-46
2021/09/17 11:05:36;;;;;;;3.08;2.20;;;;;;;;;;4973592;28;20069;-48
2021/09/17 11:08:23;;;;;;;3.13;2.35;;;;;;;;;;4992077;28;20034;-47
2021/09/17 11:10:50;;;;;;;5.10;3.15;;;;;;;;;;4991715;28;20548;-46
2021/09/17 11:13:17;;;;;;;3.13;2.30;;;;;;;;;;4991291;28;20057;-45
2021/09/17 11:15:43;;;;;;;4.22;2.53;;;;;;;;;;4991985;28;20057;-51
2021/09/17 11:18:15;;;;;;;4.07;2.10;;;;;;;;;;4991946;28;20109;-47
2021/09/17 11:20:42;;;;;;;2.70;1.80;;;;;;;;;;4995818;28;20046;-46
2021/09/17 11:23:09;;;;;;;2.08;1.50;;;;;;;;;;4995096;28;20042;-48
2021/09/17 11:25:40;;;;;;;2.50;1.60;;;;;;;;;;4995712;28;20070;-47
2021/09/17 11:28:08;;;;;;;3.38;1.83;;;;;;;;;;4995652;28;20046;-48
2021/09/17 11:30:35;;;;;;;2.47;1.77;;;;;;;;;;4995468;28;20058;-49
2021/09/17 11:33:18;;;;;;;3.17;2.10;;;;;;;;;;4995803;28;20074;-47
2021/09/17 11:35:45;;;;;;;5.27;1.93;;;;;;;;;;4995927;28;20050;-49
2021/09/17 11:38:12;;;;;;;3.33;1.77;;;;;;;;;;4995485;28;20462;-48
2021/09/17 11:40:48;;;;;;;3.20;1.80;;;;;;;;;;4995412;28;20129;-47
2021/09/17 11:43:16;;;;;;;2.75;1.73;;;;;;;;;;4994540;28;20042;-47
2021/09/17 11:45:47;;;;;;;2.85;1.85;;;;;;;;;;4994982;28;20046;-50
2021/09/17 11:48:27;;;;;;;2.28;1.50;;;;;;;;;;4995067;28;20065;-46
2021/09/17 11:50:55;;;;;;;2.97;1.88;;;;;;;;;;4995383;28;20100;-47
2021/09/17 11:53:22;;;;;;;3.25;1.90;;;;;;;;;;4994707;28;20141;-48
2021/09/17 11:55:49;;;;;;;3.83;1.80;;;;;;;;;;4995464;28;20142;-48
2021/09/17 11:58:16;;;;;;;2.63;1.77;;;;;;;;;;4995090;28;20092;-47
2021/09/17 12:00:43;;;;;;;2.60;1.80;;;;;;;;;;4994727;28;20050;-42
2021/09/17 12:03:11;;;;;;;2.95;2.03;;;;;;;;;;4994050;28;20046;-43
2021/09/17 12:05:39;;;;;;;3.70;1.67;;;;;;;;;;4994689;28;20172;-45
2021/09/17 12:08:06;;;;;;;3.20;1.88;;;;;;;;;;4985406;28;20066;-43
2021/09/17 12:10:34;;;;;;;2.63;1.77;;;;;;;;;;4975202;28;20070;-46
2021/09/17 12:13:03;;;;;;;2.15;1.55;;;;;;;;;;4973718;28;20043;-48
2021/09/17 12:15:31;;;;;;;2.25;1.60;;;;;;;;;;4974908;28;20046;-44
2021/09/17 12:18:00;;;;;;;3.35;1.75;;;;;;;;;;4992976;28;20142;-43
2021/09/17 12:20:39;;;;;;;3.08;1.70;;;;;;;;;;4994187;28;20426;-46
2021/09/17 12:23:06;;;;;;;2.40;1.52;;;;;;;;;;4993919;28;20149;-44
2021/09/17 12:25:33;;;;;;;2.35;1.55;;;;;;;;;;4994381;28;20129;-45
2021/09/17 12:28:01;;;;;;;2.97;1.90;;;;;;;;;;4994227;28;20074;-44
2021/09/17 12:30:32;;;;;;;3.50;1.90;;;;;;;;;;4974484;28;20135;-44
2021/09/17 12:33:22;;;;;;;2.67;1.92;;;;;;;;;;4975065;28;20055;-48
2021/09/17 12:35:53;;;;;;;3.03;1.85;;;;;;;;;;4974221;28;20418;-44
2021/09/17 12:38:24;;;;;;;3.15;2.10;;;;;;;;;;4975050;28;20046;-45
2021/09/17 12:40:52;;;;;;;4.35;1.95;;;;;;;;;;4974583;28;20134;-44
2021/09/17 12:43:41;;;;;;;2.95;1.90;;;;;;;;;;4973815;28;20066;-46
2021/09/17 12:46:09;;;;;;;3.92;2.03;;;;;;;;;;4982347;28;20546;-43
2021/09/17 12:48:38;;;;;;;4.00;2.17;;;;;;;;;;4993565;28;20053;-45
2021/09/17 12:51:05;;;;;;;3.45;2.65;;;;;;;;;;4994542;28;20038;-43
2021/09/17 12:53:36;;;;;;;3.47;2.40;;;;;;;;;;4993154;28;20050;-45
2021/09/17 12:56:08;;;;;;;6.13;2.50;;;;;;;;;;4994182;28;20073;-48
2021/09/17 12:58:35;;;;;;;3.85;3.05;;;;;;;;;;4993826;28;20052;-45
2021/09/17 13:01:03;;;;;;;7.20;2.67;;;;;;;;;;4993605;28;20500;-42
2021/09/17 13:03:30;;;;;;;3.55;2.25;;;;;;;;;;4992958;28;20524;-42
2021/09/17 13:05:59;;;;;;;3.28;2.30;;;;;;;;;;4993598;28;20046;-46
2021/09/17 13:08:26;;;;;;;3.00;2.20;;;;;;;;;;4993787;28;20492;-50
2021/09/17 13:10:54;;;;;;;4.32;2.42;;;;;;;;;;4994065;28;20061;-44
2021/09/17 13:13:22;;;;;;;3.40;2.20;;;;;;;;;;4993183;28;20054;-45
2021/09/17 13:15:49;;;;;;;3.17;2.40;;;;;;;;;;4988748;28;20389;-43
2021/09/17 13:18:16;;;;;;;3.92;2.70;;;;;;;;;;4973106;28;20508;-45
2021/09/17 13:20:43;;;;;;;5.40;3.25;;;;;;;;;;4972657;28;20066;-42
2021/09/17 13:23:10;;;;;;;3.78;2.53;;;;;;;;;;4972313;28;20416;-45
2021/09/17 13:25:37;;;;;;;3.40;2.45;;;;;;;;;;4973474;28;20123;-46
2021/09/17 13:28:08;;;;;;;3.72;2.80;;;;;;;;;;4975271;28;20488;-47
2021/09/17 13:30:37;;;;;;;3.58;2.50;;;;;;;;;;4993405;28;20161;-48
2021/09/17 13:33:05;;;;;;;4.85;3.10;;;;;;;;;;4992840;28;20046;-48
2021/09/17 13:35:33;;;;;;;7.68;2.67;;;;;;;;;;4993560;28;20042;-47
2021/09/17 13:38:00;;;;;;;5.97;3.30;;;;;;;;;;4986561;28;20062;-49
2021/09/17 13:40:28;;;;;;;4.55;2.80;;;;;;;;;;4973501;28;20501;-49
2021/09/17 13:42:55;;;;;;;4.07;3.55;;;;;;;;;;4972959;28;20043;-46
2021/09/17 13:45:23;;;;;;;3.50;2.60;;;;;;;;;;4972885;28;20135;-45
2021/09/17 13:47:50;;;;;;;3.00;2.40;;;;;;;;;;4990536;28;20069;-46
2021/09/17 13:50:18;;;;;;;4.90;2.55;;;;;;;;;;4993071;28;20053;-47
2021/09/17 13:52:47;;;;;;;3.85;2.53;;;;;;;;;;4993265;28;20058;-46
2021/09/17 13:55:14;;;;;;;5.10;2.90;;;;;;;;;;4982366;28;20420;-46
2021/09/17 13:57:41;;;;;;;4.30;2.95;;;;;;;;;;4973285;28;20430;-46
2021/09/17 14:00:09;;;;;;;4.57;3.67;;;;;;;;;;4973787;28;20061;-45
2021/09/17 14:02:36;;;;;;;4.68;3.10;;;;;;;;;;4973165;28;20481;-46
2021/09/17 14:05:06;;;;;;;5.40;3.50;;;;;;;;;;4972573;28;20358;-46
2021/09/17 14:07:33;;;;;;;4.55;3.10;;;;;;;;;;4972668;28;20412;-47
2021/09/17 14:10:07;;;;;;;7.93;3.35;;;;;;;;;;4973180;28;20054;-47
2021/09/17 14:12:34;;;;;;;5.05;2.80;;;;;;;;;;4972995;28;20063;-47
2021/09/17 14:15:03;;;;;;;3.88;2.78;;;;;;;;;;4977615;28;20042;-47
2021/09/17 14:17:29;;;;;;;5.18;3.22;;;;;;;;;;4991118;28;20047;-48
2021/09/17 14:19:56;;;;;;;4.05;2.90;;;;;;;;;;4992395;28;20452;-45
2021/09/17 14:22:23;;;;;;;4.55;3.50;;;;;;;;;;4974967;28;20068;-47
2021/09/17 14:24:50;;;;;;;5.35;3.22;;;;;;;;;;4991264;28;20041;-44
2021/09/17 14:27:17;;;;;;;5.03;3.08;;;;;;;;;;4992069;28;20045;-48
2021/09/17 14:29:48;;;;;;;3.80;2.60;;;;;;;;;;4991974;28;20066;-46
2021/09/17 14:32:16;;;;;;;2.92;2.38;;;;;;;;;;4992080;28;20057;-47
2021/09/17 14:34:43;;;;;;;3.55;2.60;;;;;;;;;;4991261;28;20046;-45
2021/09/17 14:37:09;;;;;;;3.58;2.90;;;;;;;;;;4984534;28;20156;-45